sensor_id;sensor_type;location;lat;lon;timestamp;P1;durP1;ratioP1;P2;durP2;ratioP2
64887;SDS011;51386;53.082;8.816;2024-02-15T00:01:15;9.80;;;8.80;;
64887;SDS011;51386;53.082;8.816;2024-02-15T00:03:44;10.77;;;9.73;;
64887;SDS011;51386;53.082;8.816;2024-02-15T00:06:12;9.90;;;8.90;;
64887;SDS011;51386;53.082;8.816;2024-02-15T00:08:41;10.30;;;8.90;;
64887;SDS011;51386;53.082;8.816;2024-02-15T00:11:09;9.73;;;8.73;;
64887;SDS011;51386;53.082;8.816;2024-02-15T00:13:38;10.63;;;9.03;;
64887;SDS011;51386;53.082;8.816;2024-02-15T00:16:06;10.67;;;9.60;;
64887;SDS011;51386;53.082;8.816;2024-02-15T00:18:35;10.77;;;9.67;;
64887;SDS011;51386;53.082;8.816;2024-02-15T00:21:04;11.20;;;10.03;;
64887;SDS011;51386;53.082;8.816;2024-02-15T00:23:33;12.27;;;10.97;;
64887;SDS011;51386;53.082;8.816;2024-02-15T00:26:01;12.60;;;9.90;;
64887;SDS011;51386;53.082;8.816;2024-02-15T00:28:30;12.43;;;11.00;;
64887;SDS011;51386;53.082;8.816;2024-02-15T00:30:58;13.97;;;10.77;;
64887;SDS011;51386;53.082;8.816;2024-02-15T00:33:27;12.33;;;11.00;;
64887;SDS011;51386;53.082;8.816;2024-02-15T00:35:56;14.30;;;12.30;;
64887;SDS011;51386;53.082;8.816;2024-02-15T00:38:25;14.87;;;12.23;;
64887;SDS011;51386;53.082;8.816;2024-02-15T00:40:53;12.97;;;11.60;;
64887;SDS011;51386;53.082;8.816;2024-02-15T00:43:22;13.93;;;11.30;;
64887;SDS011;51386;53.082;8.816;2024-02-15T00:45:50;14.57;;;12.27;;
64887;SDS011;51386;53.082;8.816;2024-02-15T00:48:19;17.23;;;14.73;;
64887;SDS011;51386;53.082;8.816;2024-02-15T00:50:47;15.27;;;12.90;;
64887;SDS011;51386;53.082;8.816;2024-02-15T00:53:16;14.73;;;12.30;;
64887;SDS011;51386;53.082;8.816;2024-02-15T00:55:44;16.10;;;12.87;;
64887;SDS011;51386;53.082;8.816;2024-02-15T00:58:13;15.40;;;13.10;;
64887;SDS011;51386;53.082;8.816;2024-02-15T01:00:41;15.83;;;14.13;;
64887;SDS011;51386;53.082;8.816;2024-02-15T01:03:10;14.67;;;13.03;;
64887;SDS011;51386;53.082;8.816;2024-02-15T01:05:38;14.10;;;12.60;;
64887;SDS011;51386;53.082;8.816;2024-02-15T01:08:07;14.57;;;13.07;;
64887;SDS011;51386;53.082;8.816;2024-02-15T01:10:36;15.57;;;13.93;;
64887;SDS011;51386;53.082;8.816;2024-02-15T01:13:05;16.37;;;14.47;;
64887;SDS011;51386;53.082;8.816;2024-02-15T01:15:34;16.67;;;13.77;;
64887;SDS011;51386;53.082;8.816;2024-02-15T01:18:04;17.33;;;14.27;;
64887;SDS011;51386;53.082;8.816;2024-02-15T01:20:33;18.40;;;14.37;;
64887;SDS011;51386;53.082;8.816;2024-02-15T01:23:02;16.83;;;14.57;;
64887;SDS011;51386;53.082;8.816;2024-02-15T01:25:33;16.87;;;13.70;;
64887;SDS011;51386;53.082;8.816;2024-02-15T01:28:01;16.43;;;13.80;;
64887;SDS011;51386;53.082;8.816;2024-02-15T01:30:30;16.97;;;15.17;;
64887;SDS011;51386;53.082;8.816;2024-02-15T01:32:59;15.50;;;13.83;;
64887;SDS011;51386;53.082;8.816;2024-02-15T01:35:28;17.57;;;14.80;;
64887;SDS011;51386;53.082;8.816;2024-02-15T01:37:57;18.33;;;14.07;;
64887;SDS011;51386;53.082;8.816;2024-02-15T01:40:25;17.43;;;14.27;;
64887;SDS011;51386;53.082;8.816;2024-02-15T01:42:54;17.97;;;14.00;;
64887;SDS011;51386;53.082;8.816;2024-02-15T01:45:22;17.17;;;14.60;;
64887;SDS011;51386;53.082;8.816;2024-02-15T01:47:51;16.43;;;14.50;;
64887;SDS011;51386;53.082;8.816;2024-02-15T01:50:22;17.10;;;14.60;;
64887;SDS011;51386;53.082;8.816;2024-02-15T01:52:53;14.23;;;12.57;;
64887;SDS011;51386;53.082;8.816;2024-02-15T01:55:25;17.37;;;13.63;;
64887;SDS011;51386;53.082;8.816;2024-02-15T01:57:54;15.33;;;13.57;;
64887;SDS011;51386;53.082;8.816;2024-02-15T02:00:23;18.10;;;13.30;;
64887;SDS011;51386;53.082;8.816;2024-02-15T02:02:55;13.43;;;12.03;;
64887;SDS011;51386;53.082;8.816;2024-02-15T02:05:30;14.57;;;13.07;;
64887;SDS011;51386;53.082;8.816;2024-02-15T02:07:59;15.13;;;13.03;;
64887;SDS011;51386;53.082;8.816;2024-02-15T02:10:31;14.73;;;13.13;;
64887;SDS011;51386;53.082;8.816;2024-02-15T02:13:00;14.53;;;12.27;;
64887;SDS011;51386;53.082;8.816;2024-02-15T02:15:33;15.70;;;13.33;;
64887;SDS011;51386;53.082;8.816;2024-02-15T02:18:02;16.47;;;14.00;;
64887;SDS011;51386;53.082;8.816;2024-02-15T02:20:36;15.13;;;13.53;;
64887;SDS011;51386;53.082;8.816;2024-02-15T02:23:25;15.23;;;13.13;;
64887;SDS011;51386;53.082;8.816;2024-02-15T02:25:56;13.47;;;12.07;;
64887;SDS011;51386;53.082;8.816;2024-02-15T02:28:25;16.87;;;12.97;;
64887;SDS011;51386;53.082;8.816;2024-02-15T02:30:53;14.73;;;13.23;;
64887;SDS011;51386;53.082;8.816;2024-02-15T02:33:22;15.53;;;13.73;;
64887;SDS011;51386;53.082;8.816;2024-02-15T02:35:52;15.33;;;12.33;;
64887;SDS011;51386;53.082;8.816;2024-02-15T02:38:21;13.33;;;11.93;;
64887;SDS011;51386;53.082;8.816;2024-02-15T02:40:49;12.83;;;11.47;;
64887;SDS011;51386;53.082;8.816;2024-02-15T02:43:18;14.83;;;12.57;;
64887;SDS011;51386;53.082;8.816;2024-02-15T02:45:46;15.07;;;12.70;;
64887;SDS011;51386;53.082;8.816;2024-02-15T02:48:15;13.77;;;12.13;;
64887;SDS011;51386;53.082;8.816;2024-02-15T02:50:45;16.63;;;12.70;;
64887;SDS011;51386;53.082;8.816;2024-02-15T02:53:13;14.63;;;12.90;;
64887;SDS011;51386;53.082;8.816;2024-02-15T02:55:42;15.23;;;13.17;;
64887;SDS011;51386;53.082;8.816;2024-02-15T02:58:11;14.70;;;12.97;;
64887;SDS011;51386;53.082;8.816;2024-02-15T03:00:40;16.47;;;12.77;;
64887;SDS011;51386;53.082;8.816;2024-02-15T03:03:10;13.57;;;12.17;;
64887;SDS011;51386;53.082;8.816;2024-02-15T03:05:39;16.20;;;13.90;;
64887;SDS011;51386;53.082;8.816;2024-02-15T03:08:08;15.47;;;13.37;;
64887;SDS011;51386;53.082;8.816;2024-02-15T03:10:37;16.03;;;13.23;;
64887;SDS011;51386;53.082;8.816;2024-02-15T03:13:06;15.80;;;13.73;;
64887;SDS011;51386;53.082;8.816;2024-02-15T03:15:38;16.63;;;13.90;;
64887;SDS011;51386;53.082;8.816;2024-02-15T03:18:06;19.67;;;15.03;;
64887;SDS011;51386;53.082;8.816;2024-02-15T03:20:39;17.17;;;14.47;;
64887;SDS011;51386;53.082;8.816;2024-02-15T03:23:07;17.97;;;14.00;;
64887;SDS011;51386;53.082;8.816;2024-02-15T03:25:36;17.00;;;14.53;;
64887;SDS011;51386;53.082;8.816;2024-02-15T03:28:05;19.63;;;15.57;;
64887;SDS011;51386;53.082;8.816;2024-02-15T03:30:33;18.23;;;14.90;;
64887;SDS011;51386;53.082;8.816;2024-02-15T03:33:02;16.33;;;13.87;;
64887;SDS011;51386;53.082;8.816;2024-02-15T03:35:33;19.53;;;15.23;;
64887;SDS011;51386;53.082;8.816;2024-02-15T03:38:02;19.93;;;15.30;;
64887;SDS011;51386;53.082;8.816;2024-02-15T03:40:31;18.10;;;14.20;;
64887;SDS011;51386;53.082;8.816;2024-02-15T03:42:59;19.30;;;15.23;;
64887;SDS011;51386;53.082;8.816;2024-02-15T03:45:28;17.87;;;14.93;;
64887;SDS011;51386;53.082;8.816;2024-02-15T03:47:57;17.77;;;14.60;;
64887;SDS011;51386;53.082;8.816;2024-02-15T03:50:26;19.93;;;15.37;;
64887;SDS011;51386;53.082;8.816;2024-02-15T03:52:54;16.90;;;14.57;;
64887;SDS011;51386;53.082;8.816;2024-02-15T03:55:23;18.87;;;14.83;;
64887;SDS011;51386;53.082;8.816;2024-02-15T03:57:52;20.60;;;16.67;;
64887;SDS011;51386;53.082;8.816;2024-02-15T04:00:23;19.57;;;15.70;;
64887;SDS011;51386;53.082;8.816;2024-02-15T04:02:52;22.83;;;16.37;;
64887;SDS011;51386;53.082;8.816;2024-02-15T04:05:21;17.93;;;14.90;;
64887;SDS011;51386;53.082;8.816;2024-02-15T04:07:50;22.70;;;16.17;;
64887;SDS011;51386;53.082;8.816;2024-02-15T04:10:21;20.40;;;15.47;;
64887;SDS011;51386;53.082;8.816;2024-02-15T04:12:56;20.67;;;16.93;;
64887;SDS011;51386;53.082;8.816;2024-02-15T04:15:25;22.07;;;16.50;;
64887;SDS011;51386;53.082;8.816;2024-02-15T04:17:54;18.90;;;15.87;;
64887;SDS011;51386;53.082;8.816;2024-02-15T04:20:24;20.97;;;16.03;;
64887;SDS011;51386;53.082;8.816;2024-02-15T04:22:53;19.47;;;16.13;;
64887;SDS011;51386;53.082;8.816;2024-02-15T04:25:22;21.40;;;16.43;;
64887;SDS011;51386;53.082;8.816;2024-02-15T04:27:55;21.50;;;16.23;;
64887;SDS011;51386;53.082;8.816;2024-02-15T04:30:25;18.80;;;16.17;;
64887;SDS011;51386;53.082;8.816;2024-02-15T04:32:53;22.13;;;16.57;;
64887;SDS011;51386;53.082;8.816;2024-02-15T04:35:22;21.33;;;15.73;;
64887;SDS011;51386;53.082;8.816;2024-02-15T04:37:50;19.17;;;15.33;;
64887;SDS011;51386;53.082;8.816;2024-02-15T04:40:20;18.70;;;15.37;;
64887;SDS011;51386;53.082;8.816;2024-02-15T04:42:49;19.53;;;15.90;;
64887;SDS011;51386;53.082;8.816;2024-02-15T04:45:17;20.53;;;16.03;;
64887;SDS011;51386;53.082;8.816;2024-02-15T04:47:56;22.07;;;16.33;;
64887;SDS011;51386;53.082;8.816;2024-02-15T04:50:29;21.23;;;16.47;;
64887;SDS011;51386;53.082;8.816;2024-02-15T04:52:58;20.13;;;15.87;;
64887;SDS011;51386;53.082;8.816;2024-02-15T04:55:26;19.50;;;15.63;;
64887;SDS011;51386;53.082;8.816;2024-02-15T04:57:58;20.43;;;15.57;;
64887;SDS011;51386;53.082;8.816;2024-02-15T05:00:27;21.33;;;15.63;;
64887;SDS011;51386;53.082;8.816;2024-02-15T05:02:56;20.33;;;16.23;;
64887;SDS011;51386;53.082;8.816;2024-02-15T05:05:25;21.97;;;16.40;;
64887;SDS011;51386;53.082;8.816;2024-02-15T05:07:55;17.13;;;14.67;;
64887;SDS011;51386;53.082;8.816;2024-02-15T05:10:23;21.87;;;15.63;;
64887;SDS011;51386;53.082;8.816;2024-02-15T05:12:53;19.33;;;14.87;;
64887;SDS011;51386;53.082;8.816;2024-02-15T05:15:23;19.83;;;15.67;;
64887;SDS011;51386;53.082;8.816;2024-02-15T05:17:53;21.20;;;16.20;;
64887;SDS011;51386;53.082;8.816;2024-02-15T05:20:21;23.53;;;18.03;;
64887;SDS011;51386;53.082;8.816;2024-02-15T05:22:54;20.93;;;16.30;;
64887;SDS011;51386;53.082;8.816;2024-02-15T05:25:23;24.10;;;16.47;;
64887;SDS011;51386;53.082;8.816;2024-02-15T05:27:54;21.87;;;17.13;;
64887;SDS011;51386;53.082;8.816;2024-02-15T05:30:23;24.73;;;17.10;;
64887;SDS011;51386;53.082;8.816;2024-02-15T05:32:55;21.67;;;16.63;;
64887;SDS011;51386;53.082;8.816;2024-02-15T05:35:24;19.33;;;15.57;;
64887;SDS011;51386;53.082;8.816;2024-02-15T05:37:54;21.10;;;16.13;;
64887;SDS011;51386;53.082;8.816;2024-02-15T05:40:23;21.07;;;16.90;;
64887;SDS011;51386;53.082;8.816;2024-02-15T05:42:55;21.53;;;17.63;;
64887;SDS011;51386;53.082;8.816;2024-02-15T05:47:53;19.63;;;16.67;;
64887;SDS011;51386;53.082;8.816;2024-02-15T05:50:22;23.60;;;18.63;;
64887;SDS011;51386;53.082;8.816;2024-02-15T05:52:51;22.00;;;17.03;;
64887;SDS011;51386;53.082;8.816;2024-02-15T05:55:22;23.33;;;17.10;;
64887;SDS011;51386;53.082;8.816;2024-02-15T05:57:50;22.23;;;16.70;;
64887;SDS011;51386;53.082;8.816;2024-02-15T06:00:19;21.43;;;17.27;;
64887;SDS011;51386;53.082;8.816;2024-02-15T06:02:49;22.60;;;17.87;;
64887;SDS011;51386;53.082;8.816;2024-02-15T06:05:19;23.33;;;17.10;;
64887;SDS011;51386;53.082;8.816;2024-02-15T06:07:48;23.83;;;18.60;;
64887;SDS011;51386;53.082;8.816;2024-02-15T06:10:16;22.87;;;18.10;;
64887;SDS011;51386;53.082;8.816;2024-02-15T06:12:45;19.87;;;16.20;;
64887;SDS011;51386;53.082;8.816;2024-02-15T06:15:13;23.23;;;17.30;;
64887;SDS011;51386;53.082;8.816;2024-02-15T06:17:45;23.17;;;17.70;;
64887;SDS011;51386;53.082;8.816;2024-02-15T06:20:14;22.73;;;17.43;;
64887;SDS011;51386;53.082;8.816;2024-02-15T06:22:48;26.77;;;18.73;;
64887;SDS011;51386;53.082;8.816;2024-02-15T06:25:19;24.27;;;17.97;;
64887;SDS011;51386;53.082;8.816;2024-02-15T06:27:48;23.27;;;17.10;;
64887;SDS011;51386;53.082;8.816;2024-02-15T06:30:18;20.77;;;17.33;;
64887;SDS011;51386;53.082;8.816;2024-02-15T06:33:05;22.63;;;17.03;;
64887;SDS011;51386;53.082;8.816;2024-02-15T06:35:52;19.63;;;16.30;;
64887;SDS011;51386;53.082;8.816;2024-02-15T06:38:39;22.10;;;16.00;;
64887;SDS011;51386;53.082;8.816;2024-02-15T06:41:26;19.83;;;15.40;;
64887;SDS011;51386;53.082;8.816;2024-02-15T06:43:56;18.80;;;15.17;;
64887;SDS011;51386;53.082;8.816;2024-02-15T06:46:25;18.27;;;15.13;;
64887;SDS011;51386;53.082;8.816;2024-02-15T06:48:54;22.53;;;15.03;;
64887;SDS011;51386;53.082;8.816;2024-02-15T06:51:22;17.83;;;14.57;;
64887;SDS011;51386;53.082;8.816;2024-02-15T06:53:52;18.13;;;14.33;;
64887;SDS011;51386;53.082;8.816;2024-02-15T06:56:23;18.50;;;15.13;;
64887;SDS011;51386;53.082;8.816;2024-02-15T06:58:52;22.13;;;16.07;;
64887;SDS011;51386;53.082;8.816;2024-02-15T07:01:23;19.23;;;15.37;;
64887;SDS011;51386;53.082;8.816;2024-02-15T07:03:52;22.77;;;14.70;;
64887;SDS011;51386;53.082;8.816;2024-02-15T07:06:24;19.27;;;14.80;;
64887;SDS011;51386;53.082;8.816;2024-02-15T07:08:54;18.63;;;15.13;;
64887;SDS011;51386;53.082;8.816;2024-02-15T07:11:25;19.23;;;13.87;;
64887;SDS011;51386;53.082;8.816;2024-02-15T07:13:53;17.27;;;14.90;;
64887;SDS011;51386;53.082;8.816;2024-02-15T07:16:22;19.83;;;15.00;;
64887;SDS011;51386;53.082;8.816;2024-02-15T07:18:50;17.07;;;14.83;;
64887;SDS011;51386;53.082;8.816;2024-02-15T07:21:20;19.77;;;16.17;;
64887;SDS011;51386;53.082;8.816;2024-02-15T07:23:55;18.23;;;14.43;;
64887;SDS011;51386;53.082;8.816;2024-02-15T07:26:24;16.77;;;14.77;;
64887;SDS011;51386;53.082;8.816;2024-02-15T07:28:53;17.77;;;14.47;;
64887;SDS011;51386;53.082;8.816;2024-02-15T07:31:22;22.10;;;15.00;;
64887;SDS011;51386;53.082;8.816;2024-02-15T07:33:57;20.17;;;15.77;;
64887;SDS011;51386;53.082;8.816;2024-02-15T07:36:26;20.10;;;15.50;;
64887;SDS011;51386;53.082;8.816;2024-02-15T07:38:55;18.30;;;15.73;;
64887;SDS011;51386;53.082;8.816;2024-02-15T07:41:28;18.83;;;15.43;;
64887;SDS011;51386;53.082;8.816;2024-02-15T07:43:58;19.47;;;15.67;;
64887;SDS011;51386;53.082;8.816;2024-02-15T07:46:28;17.57;;;15.63;;
64887;SDS011;51386;53.082;8.816;2024-02-15T07:48:56;20.37;;;16.07;;
64887;SDS011;51386;53.082;8.816;2024-02-15T07:51:35;19.93;;;16.10;;
64887;SDS011;51386;53.082;8.816;2024-02-15T07:54:05;22.70;;;15.83;;
64887;SDS011;51386;53.082;8.816;2024-02-15T07:56:33;22.43;;;16.37;;
64887;SDS011;51386;53.082;8.816;2024-02-15T07:59:02;21.87;;;17.10;;
64887;SDS011;51386;53.082;8.816;2024-02-15T08:01:34;21.33;;;16.23;;
64887;SDS011;51386;53.082;8.816;2024-02-15T08:04:02;18.23;;;15.70;;
64887;SDS011;51386;53.082;8.816;2024-02-15T08:06:30;19.97;;;15.47;;
64887;SDS011;51386;53.082;8.816;2024-02-15T08:09:00;21.53;;;16.43;;
64887;SDS011;51386;53.082;8.816;2024-02-15T08:11:29;18.53;;;16.10;;
64887;SDS011;51386;53.082;8.816;2024-02-15T08:13:57;18.13;;;15.73;;
64887;SDS011;51386;53.082;8.816;2024-02-15T08:16:28;20.90;;;17.07;;
64887;SDS011;51386;53.082;8.816;2024-02-15T08:18:57;21.70;;;17.40;;
64887;SDS011;51386;53.082;8.816;2024-02-15T08:24:00;22.57;;;18.00;;
64887;SDS011;51386;53.082;8.816;2024-02-15T08:26:36;21.13;;;17.27;;
64887;SDS011;51386;53.082;8.816;2024-02-15T08:29:07;20.93;;;17.23;;
64887;SDS011;51386;53.082;8.816;2024-02-15T08:31:35;18.60;;;16.77;;
64887;SDS011;51386;53.082;8.816;2024-02-15T08:34:04;21.33;;;17.87;;
64887;SDS011;51386;53.082;8.816;2024-02-15T08:36:33;20.20;;;15.83;;
64887;SDS011;51386;53.082;8.816;2024-02-15T08:39:02;23.30;;;17.80;;
64887;SDS011;51386;53.082;8.816;2024-02-15T08:41:31;24.23;;;17.17;;
64887;SDS011;51386;53.082;8.816;2024-02-15T08:44:00;22.83;;;16.93;;
64887;SDS011;51386;53.082;8.816;2024-02-15T08:46:29;21.10;;;16.27;;
64887;SDS011;51386;53.082;8.816;2024-02-15T08:48:58;20.97;;;17.17;;
64887;SDS011;51386;53.082;8.816;2024-02-15T08:51:29;19.77;;;17.67;;
64887;SDS011;51386;53.082;8.816;2024-02-15T08:53:58;22.00;;;17.87;;
64887;SDS011;51386;53.082;8.816;2024-02-15T08:56:27;25.17;;;18.67;;
64887;SDS011;51386;53.082;8.816;2024-02-15T08:58:56;24.73;;;18.70;;
64887;SDS011;51386;53.082;8.816;2024-02-15T09:01:28;24.03;;;19.00;;
64887;SDS011;51386;53.082;8.816;2024-02-15T09:03:57;25.47;;;19.10;;
64887;SDS011;51386;53.082;8.816;2024-02-15T09:06:26;26.33;;;19.73;;
64887;SDS011;51386;53.082;8.816;2024-02-15T09:08:54;23.57;;;18.93;;
64887;SDS011;51386;53.082;8.816;2024-02-15T09:11:28;25.67;;;19.57;;
64887;SDS011;51386;53.082;8.816;2024-02-15T09:13:57;25.17;;;20.03;;
64887;SDS011;51386;53.082;8.816;2024-02-15T09:16:25;31.20;;;21.53;;
64887;SDS011;51386;53.082;8.816;2024-02-15T09:18:54;26.77;;;21.77;;
64887;SDS011;51386;53.082;8.816;2024-02-15T09:21:23;26.20;;;20.90;;
64887;SDS011;51386;53.082;8.816;2024-02-15T09:23:52;25.57;;;21.43;;
64887;SDS011;51386;53.082;8.816;2024-02-15T09:26:21;27.03;;;22.87;;
64887;SDS011;51386;53.082;8.816;2024-02-15T09:28:50;26.73;;;21.13;;
64887;SDS011;51386;53.082;8.816;2024-02-15T09:31:18;28.67;;;20.67;;
64887;SDS011;51386;53.082;8.816;2024-02-15T09:33:47;27.50;;;21.40;;
64887;SDS011;51386;53.082;8.816;2024-02-15T09:36:15;28.77;;;21.87;;
64887;SDS011;51386;53.082;8.816;2024-02-15T09:38:44;25.90;;;20.70;;
64887;SDS011;51386;53.082;8.816;2024-02-15T09:41:14;26.00;;;22.23;;
64887;SDS011;51386;53.082;8.816;2024-02-15T09:43:42;27.73;;;22.33;;
64887;SDS011;51386;53.082;8.816;2024-02-15T09:46:12;25.57;;;21.57;;
64887;SDS011;51386;53.082;8.816;2024-02-15T09:48:40;24.10;;;20.73;;
64887;SDS011;51386;53.082;8.816;2024-02-15T09:51:18;25.60;;;20.87;;
64887;SDS011;51386;53.082;8.816;2024-02-15T09:53:49;24.73;;;20.93;;
64887;SDS011;51386;53.082;8.816;2024-02-15T09:56:17;29.33;;;21.87;;
64887;SDS011;51386;53.082;8.816;2024-02-15T09:58:49;28.93;;;22.13;;
64887;SDS011;51386;53.082;8.816;2024-02-15T10:01:19;27.03;;;22.17;;
64887;SDS011;51386;53.082;8.816;2024-02-15T10:03:50;26.27;;;21.07;;
64887;SDS011;51386;53.082;8.816;2024-02-15T10:06:20;28.27;;;21.40;;
64887;SDS011;51386;53.082;8.816;2024-02-15T10:08:48;29.13;;;22.60;;
64887;SDS011;51386;53.082;8.816;2024-02-15T10:11:18;29.50;;;22.50;;
64887;SDS011;51386;53.082;8.816;2024-02-15T10:13:48;28.87;;;21.27;;
64887;SDS011;51386;53.082;8.816;2024-02-15T10:16:18;26.20;;;21.97;;
64887;SDS011;51386;53.082;8.816;2024-02-15T10:19:09;27.50;;;21.40;;
64887;SDS011;51386;53.082;8.816;2024-02-15T10:21:38;26.90;;;21.63;;
64887;SDS011;51386;53.082;8.816;2024-02-15T10:24:12;27.57;;;21.70;;
64887;SDS011;51386;53.082;8.816;2024-02-15T10:26:40;26.43;;;21.63;;
64887;SDS011;51386;53.082;8.816;2024-02-15T10:29:09;24.20;;;20.37;;
64887;SDS011;51386;53.082;8.816;2024-02-15T10:31:40;27.17;;;20.77;;
64887;SDS011;51386;53.082;8.816;2024-02-15T10:34:21;26.80;;;21.43;;
64887;SDS011;51386;53.082;8.816;2024-02-15T10:36:50;29.17;;;21.27;;
64887;SDS011;51386;53.082;8.816;2024-02-15T10:39:19;22.73;;;20.17;;
64887;SDS011;51386;53.082;8.816;2024-02-15T10:41:52;26.17;;;19.80;;
64887;SDS011;51386;53.082;8.816;2024-02-15T10:44:22;24.13;;;19.53;;
64887;SDS011;51386;53.082;8.816;2024-02-15T10:46:53;24.90;;;19.87;;
64887;SDS011;51386;53.082;8.816;2024-02-15T10:49:22;24.67;;;18.47;;
64887;SDS011;51386;53.082;8.816;2024-02-15T10:51:56;22.43;;;19.13;;
64887;SDS011;51386;53.082;8.816;2024-02-15T10:57:32;23.30;;;18.53;;
64887;SDS011;51386;53.082;8.816;2024-02-15T11:00:05;19.50;;;17.23;;
64887;SDS011;51386;53.082;8.816;2024-02-15T11:02:38;20.97;;;18.23;;
64887;SDS011;51386;53.082;8.816;2024-02-15T11:05:19;21.73;;;18.13;;
64887;SDS011;51386;53.082;8.816;2024-02-15T11:07:51;21.60;;;18.03;;
64887;SDS011;51386;53.082;8.816;2024-02-15T11:10:22;21.17;;;16.83;;
64887;SDS011;51386;53.082;8.816;2024-02-15T11:12:50;20.27;;;17.47;;
64887;SDS011;51386;53.082;8.816;2024-02-15T11:21:16;18.63;;;16.63;;
64887;SDS011;51386;53.082;8.816;2024-02-15T11:23:46;18.63;;;16.80;;
64887;SDS011;51386;53.082;8.816;2024-02-15T11:26:42;19.60;;;15.57;;
64887;SDS011;51386;53.082;8.816;2024-02-15T11:32:34;32.87;;;24.97;;
64887;SDS011;51386;53.082;8.816;2024-02-15T11:35:21;17.97;;;15.33;;
64887;SDS011;51386;53.082;8.816;2024-02-15T11:37:54;17.07;;;15.27;;
64887;SDS011;51386;53.082;8.816;2024-02-15T11:40:28;19.33;;;14.97;;
64887;SDS011;51386;53.082;8.816;2024-02-15T11:46:16;15.57;;;13.83;;
64887;SDS011;51386;53.082;8.816;2024-02-15T11:48:50;14.70;;;13.30;;
64887;SDS011;51386;53.082;8.816;2024-02-15T11:51:28;16.67;;;13.37;;
64887;SDS011;51386;53.082;8.816;2024-02-15T11:54:10;16.70;;;14.20;;
64887;SDS011;51386;53.082;8.816;2024-02-15T11:59:15;16.93;;;13.13;;
64887;SDS011;51386;53.082;8.816;2024-02-15T12:01:56;14.83;;;13.10;;
64887;SDS011;51386;53.082;8.816;2024-02-15T12:04:44;15.43;;;13.83;;
64887;SDS011;51386;53.082;8.816;2024-02-15T12:07:32;16.03;;;13.73;;
64887;SDS011;51386;53.082;8.816;2024-02-15T12:10:20;16.87;;;13.00;;
64887;SDS011;51386;53.082;8.816;2024-02-15T12:13:06;14.20;;;12.63;;
64887;SDS011;51386;53.082;8.816;2024-02-15T12:16:15;13.37;;;12.17;;
64887;SDS011;51386;53.082;8.816;2024-02-15T12:19:02;17.70;;;13.27;;
64887;SDS011;51386;53.082;8.816;2024-02-15T12:21:31;15.73;;;12.80;;
64887;SDS011;51386;53.082;8.816;2024-02-15T12:24:01;13.80;;;11.83;;
64887;SDS011;51386;53.082;8.816;2024-02-15T12:26:33;14.07;;;12.60;;
64887;SDS011;51386;53.082;8.816;2024-02-15T12:29:02;16.53;;;13.07;;
64887;SDS011;51386;53.082;8.816;2024-02-15T12:31:31;12.87;;;11.57;;
64887;SDS011;51386;53.082;8.816;2024-02-15T12:34:00;13.83;;;12.23;;
64887;SDS011;51386;53.082;8.816;2024-02-15T12:36:36;13.63;;;11.03;;
64887;SDS011;51386;53.082;8.816;2024-02-15T12:39:06;12.10;;;10.80;;
64887;SDS011;51386;53.082;8.816;2024-02-15T12:41:39;12.13;;;10.70;;
64887;SDS011;51386;53.082;8.816;2024-02-15T12:44:10;11.83;;;10.57;;
64887;SDS011;51386;53.082;8.816;2024-02-15T12:46:38;11.73;;;10.63;;
64887;SDS011;51386;53.082;8.816;2024-02-15T12:49:27;10.60;;;9.60;;
64887;SDS011;51386;53.082;8.816;2024-02-15T12:55:07;11.77;;;10.17;;
64887;SDS011;51386;53.082;8.816;2024-02-15T12:57:42;10.53;;;9.53;;
64887;SDS011;51386;53.082;8.816;2024-02-15T13:00:14;11.03;;;9.53;;
64887;SDS011;51386;53.082;8.816;2024-02-15T13:02:49;10.40;;;9.43;;
64887;SDS011;51386;53.082;8.816;2024-02-15T13:05:19;12.07;;;10.03;;
64887;SDS011;51386;53.082;8.816;2024-02-15T13:07:49;9.63;;;8.80;;
64887;SDS011;51386;53.082;8.816;2024-02-15T13:10:19;9.97;;;8.93;;
64887;SDS011;51386;53.082;8.816;2024-02-15T13:12:47;10.17;;;9.20;;
64887;SDS011;51386;53.082;8.816;2024-02-15T13:15:16;9.37;;;8.50;;
64887;SDS011;51386;53.082;8.816;2024-02-15T13:17:45;13.00;;;9.20;;
64887;SDS011;51386;53.082;8.816;2024-02-15T13:20:21;9.43;;;8.60;;
64887;SDS011;51386;53.082;8.816;2024-02-15T13:23:04;9.70;;;8.73;;
64887;SDS011;51386;53.082;8.816;2024-02-15T13:25:37;9.80;;;8.87;;
64887;SDS011;51386;53.082;8.816;2024-02-15T13:28:11;8.77;;;7.97;;
64887;SDS011;51386;53.082;8.816;2024-02-15T13:30:41;9.70;;;8.77;;
64887;SDS011;51386;53.082;8.816;2024-02-15T13:33:13;9.77;;;8.60;;
64887;SDS011;51386;53.082;8.816;2024-02-15T13:35:43;9.90;;;8.97;;
64887;SDS011;51386;53.082;8.816;2024-02-15T13:38:11;9.40;;;8.50;;
64887;SDS011;51386;53.082;8.816;2024-02-15T13:40:51;9.77;;;8.87;;
64887;SDS011;51386;53.082;8.816;2024-02-15T13:43:22;11.47;;;10.43;;
64887;SDS011;51386;53.082;8.816;2024-02-15T13:45:51;10.43;;;9.43;;
64887;SDS011;51386;53.082;8.816;2024-02-15T13:48:20;9.13;;;8.33;;
64887;SDS011;51386;53.082;8.816;2024-02-15T13:50:51;8.23;;;7.50;;
64887;SDS011;51386;53.082;8.816;2024-02-15T13:53:23;9.37;;;8.47;;
64887;SDS011;51386;53.082;8.816;2024-02-15T13:55:52;8.90;;;8.00;;
64887;SDS011;51386;53.082;8.816;2024-02-15T13:58:21;10.67;;;7.70;;
64887;SDS011;51386;53.082;8.816;2024-02-15T14:00:49;8.13;;;7.53;;
64887;SDS011;51386;53.082;8.816;2024-02-15T14:03:18;8.97;;;7.53;;
64887;SDS011;51386;53.082;8.816;2024-02-15T14:05:49;9.40;;;7.57;;
64887;SDS011;51386;53.082;8.816;2024-02-15T14:08:18;7.57;;;6.83;;
64887;SDS011;51386;53.082;8.816;2024-02-15T14:10:48;8.00;;;7.10;;
64887;SDS011;51386;53.082;8.816;2024-02-15T14:13:16;8.00;;;7.20;;
64887;SDS011;51386;53.082;8.816;2024-02-15T14:15:45;8.43;;;7.63;;
64887;SDS011;51386;53.082;8.816;2024-02-15T14:18:14;7.73;;;7.13;;
64887;SDS011;51386;53.082;8.816;2024-02-15T14:20:46;9.43;;;8.43;;
64887;SDS011;51386;53.082;8.816;2024-02-15T14:23:16;9.27;;;8.20;;
64887;SDS011;51386;53.082;8.816;2024-02-15T14:25:44;8.47;;;7.60;;
64887;SDS011;51386;53.082;8.816;2024-02-15T14:28:13;7.60;;;7.00;;
64887;SDS011;51386;53.082;8.816;2024-02-15T14:30:42;8.50;;;7.70;;
64887;SDS011;51386;53.082;8.816;2024-02-15T14:33:29;8.07;;;7.37;;
64887;SDS011;51386;53.082;8.816;2024-02-15T14:36:00;7.87;;;7.13;;
64887;SDS011;51386;53.082;8.816;2024-02-15T14:38:29;7.70;;;6.77;;
64887;SDS011;51386;53.082;8.816;2024-02-15T14:40:57;6.80;;;6.03;;
64887;SDS011;51386;53.082;8.816;2024-02-15T14:43:28;6.57;;;6.07;;
64887;SDS011;51386;53.082;8.816;2024-02-15T14:45:57;7.20;;;6.27;;
64887;SDS011;51386;53.082;8.816;2024-02-15T14:48:25;6.47;;;5.63;;
64887;SDS011;51386;53.082;8.816;2024-02-15T14:50:54;7.90;;;6.40;;
64887;SDS011;51386;53.082;8.816;2024-02-15T14:53:23;6.23;;;5.70;;
64887;SDS011;51386;53.082;8.816;2024-02-15T14:55:52;7.17;;;5.97;;
64887;SDS011;51386;53.082;8.816;2024-02-15T14:58:21;9.63;;;6.43;;
64887;SDS011;51386;53.082;8.816;2024-02-15T15:00:50;6.30;;;5.70;;
64887;SDS011;51386;53.082;8.816;2024-02-15T15:03:29;8.20;;;6.47;;
64887;SDS011;51386;53.082;8.816;2024-02-15T15:06:06;8.40;;;6.37;;
64887;SDS011;51386;53.082;8.816;2024-02-15T15:08:54;6.93;;;6.33;;
64887;SDS011;51386;53.082;8.816;2024-02-15T15:11:42;6.37;;;5.73;;
64887;SDS011;51386;53.082;8.816;2024-02-15T15:14:29;8.03;;;6.30;;